sensor_id;sensor_type;location;lat;lon;timestamp;P1;durP1;ratioP1;P2;durP2;ratioP2
27999;SDS011;15328;50.860;10.562;2022-09-25T00:02:43;4.43;;;3.33;;
27999;SDS011;15328;50.860;10.562;2022-09-25T00:07:44;4.60;;;3.45;;
27999;SDS011;15328;50.860;10.562;2022-09-25T00:12:44;4.70;;;3.73;;
27999;SDS011;15328;50.860;10.562;2022-09-25T00:17:44;5.07;;;3.43;;
27999;SDS011;15328;50.860;10.562;2022-09-25T00:22:45;4.65;;;3.38;;
27999;SDS011;15328;50.860;10.562;2022-09-25T00:27:46;5.60;;;4.18;;
27999;SDS011;15328;50.860;10.562;2022-09-25T00:32:49;4.45;;;3.90;;
27999;SDS011;15328;50.860;10.562;2022-09-25T00:37:49;5.65;;;3.95;;
27999;SDS011;15328;50.860;10.562;2022-09-25T00:42:49;5.75;;;3.70;;
27999;SDS011;15328;50.860;10.562;2022-09-25T00:47:52;5.82;;;4.35;;
27999;SDS011;15328;50.860;10.562;2022-09-25T00:52:55;6.05;;;4.53;;
27999;SDS011;15328;50.860;10.562;2022-09-25T00:58:02;8.25;;;4.65;;
27999;SDS011;15328;50.860;10.562;2022-09-25T01:03:04;6.45;;;4.53;;
27999;SDS011;15328;50.860;10.562;2022-09-25T01:08:07;6.05;;;5.22;;
27999;SDS011;15328;50.860;10.562;2022-09-25T01:13:11;6.13;;;4.45;;
27999;SDS011;15328;50.860;10.562;2022-09-25T01:34:15;7.50;;;5.20;;
27999;SDS011;15328;50.860;10.562;2022-09-25T01:39:20;6.53;;;4.88;;
27999;SDS011;15328;50.860;10.562;2022-09-25T01:44:29;7.18;;;5.47;;
27999;SDS011;15328;50.860;10.562;2022-09-25T01:49:34;7.53;;;5.32;;
27999;SDS011;15328;50.860;10.562;2022-09-25T01:54:39;8.57;;;5.15;;
27999;SDS011;15328;50.860;10.562;2022-09-25T01:59:45;7.60;;;5.63;;
27999;SDS011;15328;50.860;10.562;2022-09-25T02:05:27;7.82;;;5.18;;
27999;SDS011;15328;50.860;10.562;2022-09-25T02:10:34;9.60;;;5.70;;
27999;SDS011;15328;50.860;10.562;2022-09-25T02:15:45;8.57;;;5.30;;
27999;SDS011;15328;50.860;10.562;2022-09-25T02:20:52;7.22;;;4.85;;
27999;SDS011;15328;50.860;10.562;2022-09-25T02:31:05;7.50;;;5.70;;
27999;SDS011;15328;50.860;10.562;2022-09-25T02:36:18;7.43;;;5.60;;
27999;SDS011;15328;50.860;10.562;2022-09-25T02:52:10;8.30;;;5.97;;
27999;SDS011;15328;50.860;10.562;2022-09-25T03:02:39;9.32;;;6.78;;
27999;SDS011;15328;50.860;10.562;2022-09-25T03:07:41;8.25;;;5.63;;
27999;SDS011;15328;50.860;10.562;2022-09-25T03:18:13;6.80;;;5.07;;
27999;SDS011;15328;50.860;10.562;2022-09-25T03:23:14;7.07;;;4.80;;
27999;SDS011;15328;50.860;10.562;2022-09-25T03:28:14;7.30;;;5.32;;
27999;SDS011;15328;50.860;10.562;2022-09-25T03:33:14;8.53;;;5.43;;
27999;SDS011;15328;50.860;10.562;2022-09-25T03:38:16;7.65;;;5.10;;
27999;SDS011;15328;50.860;10.562;2022-09-25T03:43:16;7.63;;;5.40;;
27999;SDS011;15328;50.860;10.562;2022-09-25T03:48:17;7.95;;;5.97;;
27999;SDS011;15328;50.860;10.562;2022-09-25T03:53:17;7.05;;;5.55;;
27999;SDS011;15328;50.860;10.562;2022-09-25T03:58:17;7.47;;;5.28;;
27999;SDS011;15328;50.860;10.562;2022-09-25T04:03:18;7.20;;;4.80;;
27999;SDS011;15328;50.860;10.562;2022-09-25T04:08:24;5.88;;;3.85;;
27999;SDS011;15328;50.860;10.562;2022-09-25T04:13:26;5.45;;;4.15;;
27999;SDS011;15328;50.860;10.562;2022-09-25T04:18:31;5.53;;;4.18;;
27999;SDS011;15328;50.860;10.562;2022-09-25T04:23:32;7.30;;;5.05;;
27999;SDS011;15328;50.860;10.562;2022-09-25T04:28:32;7.60;;;6.03;;
27999;SDS011;15328;50.860;10.562;2022-09-25T04:33:33;7.63;;;5.60;;
27999;SDS011;15328;50.860;10.562;2022-09-25T04:38:46;7.18;;;5.95;;
27999;SDS011;15328;50.860;10.562;2022-09-25T04:43:47;6.10;;;4.80;;
27999;SDS011;15328;50.860;10.562;2022-09-25T04:48:47;5.85;;;4.00;;
27999;SDS011;15328;50.860;10.562;2022-09-25T04:53:48;6.13;;;4.15;;
27999;SDS011;15328;50.860;10.562;2022-09-25T04:58:48;4.50;;;3.60;;
27999;SDS011;15328;50.860;10.562;2022-09-25T05:03:49;5.18;;;4.18;;
27999;SDS011;15328;50.860;10.562;2022-09-25T05:08:52;6.15;;;4.63;;
27999;SDS011;15328;50.860;10.562;2022-09-25T05:13:52;6.63;;;5.10;;
27999;SDS011;15328;50.860;10.562;2022-09-25T05:18:53;7.82;;;5.72;;
27999;SDS011;15328;50.860;10.562;2022-09-25T05:23:53;7.93;;;5.10;;
27999;SDS011;15328;50.860;10.562;2022-09-25T05:28:54;6.53;;;5.15;;
27999;SDS011;15328;50.860;10.562;2022-09-25T05:33:55;7.28;;;5.38;;
27999;SDS011;15328;50.860;10.562;2022-09-25T05:38:56;8.45;;;5.25;;
27999;SDS011;15328;50.860;10.562;2022-09-25T05:43:56;7.17;;;5.53;;
27999;SDS011;15328;50.860;10.562;2022-09-25T05:48:57;6.15;;;4.47;;
27999;SDS011;15328;50.860;10.562;2022-09-25T05:53:59;7.53;;;5.05;;
27999;SDS011;15328;50.860;10.562;2022-09-25T05:58:59;7.10;;;5.07;;
27999;SDS011;15328;50.860;10.562;2022-09-25T06:04:00;6.90;;;5.18;;
27999;SDS011;15328;50.860;10.562;2022-09-25T06:09:00;6.10;;;5.18;;
27999;SDS011;15328;50.860;10.562;2022-09-25T06:14:01;7.88;;;5.80;;
27999;SDS011;15328;50.860;10.562;2022-09-25T06:19:02;13.93;;;10.00;;
27999;SDS011;15328;50.860;10.562;2022-09-25T06:24:03;9.57;;;7.43;;
27999;SDS011;15328;50.860;10.562;2022-09-25T06:29:03;10.37;;;6.83;;
27999;SDS011;15328;50.860;10.562;2022-09-25T06:34:04;10.57;;;7.82;;
27999;SDS011;15328;50.860;10.562;2022-09-25T06:39:05;10.30;;;7.53;;
27999;SDS011;15328;50.860;10.562;2022-09-25T06:44:05;10.60;;;8.10;;
27999;SDS011;15328;50.860;10.562;2022-09-25T06:49:09;10.00;;;7.20;;
27999;SDS011;15328;50.860;10.562;2022-09-25T06:54:12;9.88;;;7.15;;
27999;SDS011;15328;50.860;10.562;2022-09-25T06:59:12;10.13;;;7.53;;
27999;SDS011;15328;50.860;10.562;2022-09-25T07:04:13;13.20;;;9.97;;
27999;SDS011;15328;50.860;10.562;2022-09-25T07:09:13;15.98;;;11.07;;
27999;SDS011;15328;50.860;10.562;2022-09-25T07:14:13;18.77;;;12.50;;
27999;SDS011;15328;50.860;10.562;2022-09-25T07:19:13;17.87;;;12.20;;
27999;SDS011;15328;50.860;10.562;2022-09-25T07:24:14;18.17;;;12.27;;
27999;SDS011;15328;50.860;10.562;2022-09-25T07:29:14;17.90;;;12.70;;
27999;SDS011;15328;50.860;10.562;2022-09-25T07:34:15;21.95;;;13.98;;
27999;SDS011;15328;50.860;10.562;2022-09-25T07:39:15;19.17;;;13.98;;
27999;SDS011;15328;50.860;10.562;2022-09-25T07:44:16;14.97;;;10.73;;
27999;SDS011;15328;50.860;10.562;2022-09-25T07:49:16;13.40;;;9.53;;
27999;SDS011;15328;50.860;10.562;2022-09-25T07:54:16;15.20;;;10.87;;
27999;SDS011;15328;50.860;10.562;2022-09-25T07:59:17;12.82;;;9.02;;
27999;SDS011;15328;50.860;10.562;2022-09-25T08:04:17;13.43;;;9.57;;
27999;SDS011;15328;50.860;10.562;2022-09-25T08:09:18;12.82;;;9.20;;
27999;SDS011;15328;50.860;10.562;2022-09-25T08:14:18;11.20;;;8.63;;
27999;SDS011;15328;50.860;10.562;2022-09-25T08:19:19;9.80;;;7.30;;
27999;SDS011;15328;50.860;10.562;2022-09-25T08:24:21;11.40;;;8.20;;
27999;SDS011;15328;50.860;10.562;2022-09-25T08:29:22;12.82;;;9.75;;
27999;SDS011;15328;50.860;10.562;2022-09-25T08:34:23;13.57;;;10.35;;
27999;SDS011;15328;50.860;10.562;2022-09-25T08:39:24;14.25;;;9.30;;
27999;SDS011;15328;50.860;10.562;2022-09-25T08:44:29;12.57;;;9.40;;
27999;SDS011;15328;50.860;10.562;2022-09-25T08:50:32;15.68;;;11.52;;
27999;SDS011;15328;50.860;10.562;2022-09-25T08:55:28;13.20;;;9.82;;
27999;SDS011;15328;50.860;10.562;2022-09-25T09:00:51;12.30;;;9.07;;
27999;SDS011;15328;50.860;10.562;2022-09-25T09:05:55;8.70;;;6.95;;
27999;SDS011;15328;50.860;10.562;2022-09-25T09:11:05;12.65;;;9.80;;
27999;SDS011;15328;50.860;10.562;2022-09-25T09:16:14;11.60;;;8.73;;
27999;SDS011;15328;50.860;10.562;2022-09-25T09:21:36;9.75;;;7.55;;
27999;SDS011;15328;50.860;10.562;2022-09-25T09:54:03;9.50;;;6.85;;
27999;SDS011;15328;50.860;10.562;2022-09-25T09:59:21;7.50;;;5.97;;
27999;SDS011;15328;50.860;10.562;2022-09-25T10:04:25;9.07;;;6.75;;
27999;SDS011;15328;50.860;10.562;2022-09-25T10:09:30;10.38;;;7.15;;
27999;SDS011;15328;50.860;10.562;2022-09-25T10:14:32;9.48;;;6.95;;
27999;SDS011;15328;50.860;10.562;2022-09-25T10:19:47;8.57;;;6.30;;
27999;SDS011;15328;50.860;10.562;2022-09-25T10:24:50;9.82;;;7.47;;
27999;SDS011;15328;50.860;10.562;2022-09-25T10:29:59;8.27;;;6.75;;
27999;SDS011;15328;50.860;10.562;2022-09-25T10:40:27;12.50;;;9.05;;
27999;SDS011;15328;50.860;10.562;2022-09-25T10:45:34;11.18;;;8.35;;
27999;SDS011;15328;50.860;10.562;2022-09-25T10:50:35;9.75;;;7.28;;
27999;SDS011;15328;50.860;10.562;2022-09-25T10:55:36;10.18;;;7.85;;
27999;SDS011;15328;50.860;10.562;2022-09-25T11:00:51;8.27;;;6.68;;
27999;SDS011;15328;50.860;10.562;2022-09-25T11:05:58;7.22;;;6.05;;
27999;SDS011;15328;50.860;10.562;2022-09-25T11:11:04;9.00;;;7.20;;
27999;SDS011;15328;50.860;10.562;2022-09-25T11:16:08;8.52;;;6.30;;
27999;SDS011;15328;50.860;10.562;2022-09-25T11:21:16;10.05;;;7.57;;
27999;SDS011;15328;50.860;10.562;2022-09-25T11:26:19;12.68;;;7.93;;
27999;SDS011;15328;50.860;10.562;2022-09-25T11:31:28;10.30;;;7.57;;
27999;SDS011;15328;50.860;10.562;2022-09-25T11:36:35;8.77;;;6.77;;
27999;SDS011;15328;50.860;10.562;2022-09-25T11:46:56;10.63;;;8.00;;
27999;SDS011;15328;50.860;10.562;2022-09-25T12:03:09;10.35;;;7.88;;
27999;SDS011;15328;50.860;10.562;2022-09-25T12:19:30;6.20;;;4.78;;
27999;SDS011;15328;50.860;10.562;2022-09-25T12:40:33;9.07;;;6.47;;
27999;SDS011;15328;50.860;10.562;2022-09-25T12:51:00;6.80;;;5.30;;
27999;SDS011;15328;50.860;10.562;2022-09-25T12:56:26;6.53;;;5.38;;
27999;SDS011;15328;50.860;10.562;2022-09-25T13:01:35;7.25;;;5.28;;
27999;SDS011;15328;50.860;10.562;2022-09-25T13:06:44;7.15;;;5.28;;
27999;SDS011;15328;50.860;10.562;2022-09-25T13:11:54;6.82;;;4.97;;
27999;SDS011;15328;50.860;10.562;2022-09-25T13:17:02;7.55;;;5.75;;
27999;SDS011;15328;50.860;10.562;2022-09-25T13:27:12;8.23;;;6.13;;
27999;SDS011;15328;50.860;10.562;2022-09-25T13:32:18;7.53;;;5.70;;
27999;SDS011;15328;50.860;10.562;2022-09-25T13:37:28;6.38;;;5.10;;
27999;SDS011;15328;50.860;10.562;2022-09-25T13:42:40;7.50;;;5.13;;
27999;SDS011;15328;50.860;10.562;2022-09-25T14:08:40;8.90;;;6.35;;
27999;SDS011;15328;50.860;10.562;2022-09-25T14:13:42;7.75;;;6.43;;
27999;SDS011;15328;50.860;10.562;2022-09-25T14:18:45;8.15;;;6.10;;
27999;SDS011;15328;50.860;10.562;2022-09-25T14:23:47;7.25;;;5.82;;
27999;SDS011;15328;50.860;10.562;2022-09-25T14:28:50;7.20;;;6.05;;
27999;SDS011;15328;50.860;10.562;2022-09-25T14:49:38;8.27;;;6.07;;
27999;SDS011;15328;50.860;10.562;2022-09-25T14:54:42;7.30;;;5.97;;
27999;SDS011;15328;50.860;10.562;2022-09-25T14:59:46;7.05;;;6.07;;
27999;SDS011;15328;50.860;10.562;2022-09-25T15:04:50;7.15;;;5.57;;
27999;SDS011;15328;50.860;10.562;2022-09-25T15:09:55;6.43;;;5.13;;
27999;SDS011;15328;50.860;10.562;2022-09-25T15:20:12;13.60;;;9.48;;
27999;SDS011;15328;50.860;10.562;2022-09-25T15:25:16;11.15;;;7.78;;
27999;SDS011;15328;50.860;10.562;2022-09-25T15:30:22;7.57;;;5.70;;
27999;SDS011;15328;50.860;10.562;2022-09-25T15:35:26;7.25;;;4.60;;
27999;SDS011;15328;50.860;10.562;2022-09-25T15:40:27;6.28;;;4.40;;
27999;SDS011;15328;50.860;10.562;2022-09-25T15:50:42;5.07;;;3.53;;
27999;SDS011;15328;50.860;10.562;2022-09-25T15:55:44;5.72;;;4.35;;
27999;SDS011;15328;50.860;10.562;2022-09-25T16:00:57;6.68;;;3.80;;
27999;SDS011;15328;50.860;10.562;2022-09-25T16:06:18;6.00;;;3.75;;
27999;SDS011;15328;50.860;10.562;2022-09-25T16:11:24;4.57;;;3.60;;
27999;SDS011;15328;50.860;10.562;2022-09-25T16:16:29;4.68;;;3.33;;
27999;SDS011;15328;50.860;10.562;2022-09-25T16:21:31;4.53;;;3.15;;
27999;SDS011;15328;50.860;10.562;2022-09-25T16:26:35;5.47;;;3.40;;
27999;SDS011;15328;50.860;10.562;2022-09-25T16:31:38;4.75;;;3.33;;
27999;SDS011;15328;50.860;10.562;2022-09-25T16:36:41;5.22;;;3.40;;
27999;SDS011;15328;50.860;10.562;2022-09-25T16:41:45;5.50;;;3.60;;
27999;SDS011;15328;50.860;10.562;2022-09-25T16:51:52;8.65;;;5.35;;
27999;SDS011;15328;50.860;10.562;2022-09-25T16:56:53;6.45;;;3.72;;
27999;SDS011;15328;50.860;10.562;2022-09-25T17:01:58;6.25;;;3.28;;
27999;SDS011;15328;50.860;10.562;2022-09-25T17:07:03;6.20;;;3.35;;
27999;SDS011;15328;50.860;10.562;2022-09-25T17:12:05;4.03;;;2.70;;
27999;SDS011;15328;50.860;10.562;2022-09-25T17:17:09;5.00;;;3.10;;
27999;SDS011;15328;50.860;10.562;2022-09-25T17:22:14;5.30;;;3.00;;
27999;SDS011;15328;50.860;10.562;2022-09-25T17:27:15;4.25;;;2.80;;
27999;SDS011;15328;50.860;10.562;2022-09-25T17:32:16;3.47;;;2.40;;
27999;SDS011;15328;50.860;10.562;2022-09-25T17:37:16;6.57;;;2.80;;
27999;SDS011;15328;50.860;10.562;2022-09-25T17:42:16;4.17;;;2.90;;
27999;SDS011;15328;50.860;10.562;2022-09-25T17:47:17;3.83;;;2.37;;
27999;SDS011;15328;50.860;10.562;2022-09-25T17:52:20;3.55;;;2.22;;
27999;SDS011;15328;50.860;10.562;2022-09-25T17:57:20;3.23;;;2.30;;
27999;SDS011;15328;50.860;10.562;2022-09-25T18:02:21;3.97;;;2.53;;
27999;SDS011;15328;50.860;10.562;2022-09-25T18:07:21;3.75;;;2.30;;
27999;SDS011;15328;50.860;10.562;2022-09-25T18:12:22;5.15;;;3.30;;
27999;SDS011;15328;50.860;10.562;2022-09-25T18:17:22;3.20;;;2.40;;
27999;SDS011;15328;50.860;10.562;2022-09-25T18:22:23;3.15;;;2.33;;
27999;SDS011;15328;50.860;10.562;2022-09-25T18:27:25;4.03;;;2.58;;
27999;SDS011;15328;50.860;10.562;2022-09-25T18:32:28;3.58;;;2.65;;
27999;SDS011;15328;50.860;10.562;2022-09-25T18:37:30;3.75;;;2.40;;
27999;SDS011;15328;50.860;10.562;2022-09-25T18:42:30;3.67;;;2.30;;
27999;SDS011;15328;50.860;10.562;2022-09-25T18:47:31;3.50;;;2.17;;
27999;SDS011;15328;50.860;10.562;2022-09-25T18:52:33;5.07;;;3.22;;
27999;SDS011;15328;50.860;10.562;2022-09-25T18:57:33;3.83;;;2.70;;
27999;SDS011;15328;50.860;10.562;2022-09-25T19:02:34;3.85;;;2.97;;
27999;SDS011;15328;50.860;10.562;2022-09-25T19:07:37;3.97;;;2.67;;
27999;SDS011;15328;50.860;10.562;2022-09-25T19:12:38;3.92;;;2.58;;
27999;SDS011;15328;50.860;10.562;2022-09-25T19:17:38;5.30;;;2.73;;
27999;SDS011;15328;50.860;10.562;2022-09-25T19:22:38;3.53;;;2.17;;
27999;SDS011;15328;50.860;10.562;2022-09-25T19:27:40;3.13;;;2.13;;
27999;SDS011;15328;50.860;10.562;2022-09-25T19:32:40;3.97;;;2.20;;
27999;SDS011;15328;50.860;10.562;2022-09-25T19:37:41;2.55;;;1.85;;
27999;SDS011;15328;50.860;10.562;2022-09-25T19:42:41;2.78;;;2.00;;
27999;SDS011;15328;50.860;10.562;2022-09-25T19:47:42;2.55;;;1.80;;
27999;SDS011;15328;50.860;10.562;2022-09-25T19:52:42;2.88;;;1.73;;
27999;SDS011;15328;50.860;10.562;2022-09-25T19:57:42;2.53;;;1.63;;
27999;SDS011;15328;50.860;10.562;2022-09-25T20:02:46;2.30;;;1.60;;
27999;SDS011;15328;50.860;10.562;2022-09-25T20:07:46;2.40;;;1.40;;
27999;SDS011;15328;50.860;10.562;2022-09-25T20:12:47;3.40;;;1.93;;
27999;SDS011;15328;50.860;10.562;2022-09-25T20:17:47;3.23;;;1.60;;
27999;SDS011;15328;50.860;10.562;2022-09-25T20:22:47;2.80;;;1.55;;
27999;SDS011;15328;50.860;10.562;2022-09-25T20:27:48;2.77;;;1.60;;
27999;SDS011;15328;50.860;10.562;2022-09-25T20:32:49;2.53;;;1.67;;
27999;SDS011;15328;50.860;10.562;2022-09-25T20:37:51;2.25;;;1.40;;
27999;SDS011;15328;50.860;10.562;2022-09-25T20:42:51;1.80;;;1.45;;
27999;SDS011;15328;50.860;10.562;2022-09-25T20:47:52;1.87;;;1.30;;
27999;SDS011;15328;50.860;10.562;2022-09-25T20:52:54;2.55;;;1.42;;
27999;SDS011;15328;50.860;10.562;2022-09-25T20:57:55;2.38;;;1.70;;
27999;SDS011;15328;50.860;10.562;2022-09-25T21:02:57;3.05;;;1.40;;
27999;SDS011;15328;50.860;10.562;2022-09-25T21:07:58;2.78;;;1.60;;
27999;SDS011;15328;50.860;10.562;2022-09-25T21:13:00;2.88;;;1.60;;
27999;SDS011;15328;50.860;10.562;2022-09-25T21:18:04;2.13;;;1.50;;
27999;SDS011;15328;50.860;10.562;2022-09-25T21:23:04;2.30;;;1.47;;
27999;SDS011;15328;50.860;10.562;2022-09-25T21:28:05;3.05;;;1.33;;
27999;SDS011;15328;50.860;10.562;2022-09-25T21:33:05;3.03;;;1.60;;
27999;SDS011;15328;50.860;10.562;2022-09-25T21:38:05;2.00;;;1.43;;
27999;SDS011;15328;50.860;10.562;2022-09-25T21:43:06;2.17;;;1.30;;
27999;SDS011;15328;50.860;10.562;2022-09-25T21:48:06;1.92;;;1.15;;
27999;SDS011;15328;50.860;10.562;2022-09-25T21:53:07;2.90;;;1.20;;
27999;SDS011;15328;50.860;10.562;2022-09-25T21:58:07;2.50;;;1.43;;
27999;SDS011;15328;50.860;10.562;2022-09-25T22:03:07;1.20;;;1.00;;
27999;SDS011;15328;50.860;10.562;2022-09-25T22:08:08;2.17;;;1.13;;
27999;SDS011;15328;50.860;10.562;2022-09-25T22:13:09;1.88;;;1.17;;
27999;SDS011;15328;50.860;10.562;2022-09-25T22:18:09;1.90;;;1.10;;
27999;SDS011;15328;50.860;10.562;2022-09-25T22:23:09;2.22;;;1.17;;
27999;SDS011;15328;50.860;10.562;2022-09-25T22:28:10;1.50;;;1.10;;
27999;SDS011;15328;50.860;10.562;2022-09-25T22:33:10;1.75;;;1.20;;
27999;SDS011;15328;50.860;10.562;2022-09-25T22:38:11;1.98;;;1.10;;
27999;SDS011;15328;50.860;10.562;2022-09-25T22:43:11;2.25;;;1.10;;
27999;SDS011;15328;50.860;10.562;2022-09-25T22:48:11;1.75;;;0.90;;
27999;SDS011;15328;50.860;10.562;2022-09-25T22:53:11;3.22;;;1.42;;
27999;SDS011;15328;50.860;10.562;2022-09-25T22:58:12;1.13;;;0.98;;
27999;SDS011;15328;50.860;10.562;2022-09-25T23:03:14;3.92;;;1.00;;
27999;SDS011;15328;50.860;10.562;2022-09-25T23:08:14;1.73;;;1.10;;
27999;SDS011;15328;50.860;10.562;2022-09-25T23:13:14;1.10;;;0.67;;
27999;SDS011;15328;50.860;10.562;2022-09-25T23:18:15;1.60;;;1.00;;
27999;SDS011;15328;50.860;10.562;2022-09-25T23:23:15;1.95;;;0.90;;
27999;SDS011;15328;50.860;10.562;2022-09-25T23:28:15;2.17;;;1.05;;
27999;SDS011;15328;50.860;10.562;2022-09-25T23:33:16;2.83;;;1.10;;
27999;SDS011;15328;50.860;10.562;2022-09-25T23:38:16;1.00;;;0.70;;
27999;SDS011;15328;50.860;10.562;2022-09-25T23:43:16;1.88;;;0.80;;
27999;SDS011;15328;50.860;10.562;2022-09-25T23:48:17;2.73;;;1.47;;
27999;SDS011;15328;50.860;10.562;2022-09-25T23:53:17;1.83;;;1.00;;
27999;SDS011;15328;50.860;10.562;2022-09-25T23:58:18;2.67;;;1.20;;
